Time;durP1;ratioP1;P1;durP2;ratioP2;P2;SDS_P1;SDS_P2;PMS_P1;PMS_P2;Temp;Humidity;BMP_temperature;BMP_pressure;BME280_temperature;BME280_humidity;BME280_pressure;Samples;Min_cycle;Max_cycle;Signal;HPM_P1;HPM_P2
2023/05/04 00:00:38;;;;;;;7.30;3.90;;;6.00;99.90;;;;;;6223259;23;20233;-62
2023/05/04 00:03:06;;;;;;;5.97;3.73;;;6.00;99.90;;;;;;6204304;23;20769;-63
2023/05/04 00:05:33;;;;;;;7.70;3.80;;;6.00;99.90;;;;;;6213532;22;20207;-63
2023/05/04 00:07:59;;;;;;;5.33;4.03;;;5.80;99.90;;;;;;6210897;23;20182;-63
2023/05/04 00:10:26;;;;;;;6.27;3.50;;;5.60;99.90;;;;;;6214326;23;20200;-63
2023/05/04 00:12:53;;;;;;;12.17;4.80;;;5.60;99.90;;;;;;6197897;23;20177;-63
2023/05/04 00:15:20;;;;;;;9.07;3.97;;;5.50;99.90;;;;;;6222390;23;20184;-63
2023/05/04 00:17:47;;;;;;;7.53;3.87;;;5.60;99.90;;;;;;6197285;23;20180;-63
2023/05/04 00:20:15;;;;;;;4.33;3.43;;;5.80;99.90;;;;;;6211888;23;20176;-63
2023/05/04 00:22:42;;;;;;;6.43;3.57;;;5.80;99.90;;;;;;6217922;23;20180;-63
2023/05/04 00:25:09;;;;;;;8.60;4.00;;;5.90;99.90;;;;;;6207298;23;20204;-63
2023/05/04 00:27:36;;;;;;;11.33;4.37;;;6.00;99.90;;;;;;6211247;22;20179;-63
2023/05/04 00:30:03;;;;;;;7.93;3.70;;;5.90;99.90;;;;;;6212494;22;20172;-63
2023/05/04 00:32:30;;;;;;;6.43;3.63;;;5.80;99.90;;;;;;6221190;23;20183;-63
2023/05/04 00:34:57;;;;;;;9.87;5.47;;;5.80;99.90;;;;;;6201478;22;20996;-63
2023/05/04 00:37:25;;;;;;;9.47;5.43;;;5.80;99.90;;;;;;6217957;22;20196;-63
2023/05/04 00:39:52;;;;;;;7.40;4.70;;;5.70;99.90;;;;;;6208255;23;20330;-63
2023/05/04 00:42:19;;;;;;;10.50;3.80;;;5.80;99.90;;;;;;6210328;23;20175;-62
2023/05/04 00:44:45;;;;;;;8.17;4.73;;;5.80;99.90;;;;;;6212971;23;20200;-63
2023/05/04 00:47:12;;;;;;;7.47;4.30;;;5.80;99.90;;;;;;6210931;23;20671;-63
2023/05/04 00:49:39;;;;;;;6.47;4.00;;;5.70;99.90;;;;;;6204414;23;20663;-63
2023/05/04 00:52:07;;;;;;;6.10;3.87;;;5.60;99.90;;;;;;6211789;23;20208;-63
2023/05/04 00:54:35;;;;;;;9.43;4.33;;;5.60;99.90;;;;;;6216051;23;20176;-62
2023/05/04 00:57:02;;;;;;;14.33;5.03;;;5.50;99.90;;;;;;6212173;22;20202;-63
2023/05/04 00:59:29;;;;;;;6.13;3.97;;;5.70;99.90;;;;;;6211356;23;20184;-63
2023/05/04 01:01:56;;;;;;;9.10;4.30;;;5.60;99.90;;;;;;6211840;23;20175;-63
2023/05/04 01:04:23;;;;;;;8.97;3.77;;;5.60;99.90;;;;;;6205283;23;20173;-63
2023/05/04 01:06:58;;;;;;;12.40;4.67;;;5.70;99.90;;;;;;6207570;23;20420;-63
2023/05/04 01:09:35;;;;;;;7.20;3.83;;;5.70;99.90;;;;;;6214334;23;20510;-63
2023/05/04 01:12:06;;;;;;;7.30;4.23;;;5.70;99.90;;;;;;6210190;22;20293;-62
2023/05/04 01:14:34;;;;;;;7.60;4.67;;;5.80;99.90;;;;;;6209825;23;20176;-62
2023/05/04 01:17:04;;;;;;;8.77;4.13;;;5.80;99.90;;;;;;6210512;23;20184;-63
2023/05/04 01:19:31;;;;;;;8.70;3.70;;;5.80;99.90;;;;;;6217555;23;20261;-63
2023/05/04 01:21:59;;;;;;;7.63;4.13;;;5.80;99.90;;;;;;6198600;23;20574;-62
2023/05/04 01:24:26;;;;;;;7.90;3.80;;;5.80;99.90;;;;;;6216145;23;20203;-63
2023/05/04 01:26:56;;;;;;;9.63;4.50;;;5.80;99.90;;;;;;6208458;23;20205;-63
2023/05/04 01:29:28;;;;;;;5.53;3.67;;;5.80;99.90;;;;;;6223304;23;20176;-63
2023/05/04 01:31:56;;;;;;;7.17;4.70;;;5.80;99.90;;;;;;6200965;23;20175;-62
2023/05/04 01:34:23;;;;;;;10.03;4.37;;;5.80;99.90;;;;;;6222663;22;20629;-63
2023/05/04 01:36:51;;;;;;;7.93;3.80;;;5.70;99.90;;;;;;6190896;22;20197;-62
2023/05/04 01:39:19;;;;;;;6.90;4.63;;;5.70;99.90;;;;;;6222999;23;20176;-62
2023/05/04 01:41:46;;;;;;;9.87;3.77;;;5.70;99.90;;;;;;6211011;23;20179;-63
2023/05/04 01:44:12;;;;;;;5.37;4.20;;;5.70;99.90;;;;;;6212642;22;20173;-62
2023/05/04 01:46:40;;;;;;;6.83;4.13;;;5.70;99.90;;;;;;6206389;23;20213;-63
2023/05/04 01:49:06;;;;;;;6.87;3.90;;;5.60;99.90;;;;;;6221290;22;20547;-62
2023/05/04 01:51:33;;;;;;;8.37;4.27;;;5.60;99.90;;;;;;6203650;23;20180;-63
2023/05/04 01:54:00;;;;;;;6.20;3.70;;;5.60;99.90;;;;;;6214208;23;20179;-63
2023/05/04 01:56:29;;;;;;;6.63;4.03;;;5.60;99.90;;;;;;6214117;23;20171;-62
2023/05/04 01:58:55;;;;;;;7.63;3.83;;;5.40;99.90;;;;;;6210888;22;20183;-63
2023/05/04 02:01:22;;;;;;;6.77;4.17;;;5.30;99.90;;;;;;6222381;23;20175;-63
2023/05/04 02:03:49;;;;;;;8.53;4.57;;;5.20;99.90;;;;;;6207062;23;20626;-63
2023/05/04 02:06:16;;;;;;;6.90;3.87;;;5.10;99.90;;;;;;6202849;23;20682;-63
2023/05/04 02:08:43;;;;;;;8.27;4.13;;;5.10;99.90;;;;;;6209290;23;20228;-63
2023/05/04 02:11:10;;;;;;;9.97;3.73;;;5.10;99.90;;;;;;6212633;23;20441;-62
2023/05/04 02:13:38;;;;;;;16.17;4.03;;;5.10;99.90;;;;;;6216866;23;20547;-63
2023/05/04 02:16:06;;;;;;;5.97;3.97;;;5.10;99.90;;;;;;6214025;23;20708;-62
2023/05/04 02:18:33;;;;;;;8.40;4.00;;;5.10;99.90;;;;;;6212472;22;20181;-62
2023/05/04 02:21:00;;;;;;;8.17;3.93;;;5.00;99.90;;;;;;6201630;22;20183;-62
2023/05/04 02:23:27;;;;;;;7.13;4.03;;;5.00;99.90;;;;;;6224480;23;20254;-64
2023/05/04 02:25:55;;;;;;;6.93;3.90;;;5.00;99.90;;;;;;6215659;23;20422;-63
2023/05/04 02:28:22;;;;;;;7.13;4.00;;;4.90;99.90;;;;;;6214712;23;20271;-63
2023/05/04 02:30:50;;;;;;;7.20;3.97;;;4.80;99.90;;;;;;6210396;23;20200;-62
2023/05/04 02:33:17;;;;;;;6.10;3.90;;;4.80;99.90;;;;;;6209188;23;20200;-63
2023/05/04 02:35:44;;;;;;;7.60;4.60;;;4.80;99.90;;;;;;6219652;22;20173;-63
2023/05/04 02:38:11;;;;;;;7.17;4.10;;;4.80;99.90;;;;;;6205969;22;20305;-62
2023/05/04 02:40:38;;;;;;;12.03;4.50;;;4.70;99.90;;;;;;6211995;23;20956;-63
2023/05/04 02:43:05;;;;;;;8.30;4.60;;;4.70;99.90;;;;;;6221076;23;20386;-63
2023/05/04 02:45:32;;;;;;;5.70;4.03;;;4.70;99.90;;;;;;6213668;23;20280;-63
2023/05/04 02:48:00;;;;;;;8.20;4.40;;;4.70;99.90;;;;;;6219762;22;20263;-63
2023/05/04 02:50:27;;;;;;;6.23;4.10;;;4.70;99.90;;;;;;6212832;23;20228;-63
2023/05/04 02:52:54;;;;;;;9.67;4.03;;;4.70;99.90;;;;;;6199458;22;20181;-63
2023/05/04 02:55:21;;;;;;;8.13;4.33;;;4.60;99.90;;;;;;6224716;23;20674;-62
2023/05/04 02:57:48;;;;;;;8.40;4.17;;;4.60;99.90;;;;;;6217271;23;20271;-62
2023/05/04 03:00:16;;;;;;;12.17;4.17;;;4.70;99.90;;;;;;6224056;22;20177;-62
2023/05/04 03:02:42;;;;;;;7.00;4.00;;;4.70;99.90;;;;;;6211024;23;20235;-63
2023/05/04 03:05:11;;;;;;;10.17;4.80;;;4.70;99.90;;;;;;6212798;23;20491;-63
2023/05/04 03:07:38;;;;;;;12.33;4.30;;;4.70;99.90;;;;;;6214781;23;20169;-62
2023/05/04 03:10:07;;;;;;;10.27;4.63;;;4.70;99.90;;;;;;6215731;23;20175;-63
2023/05/04 03:12:34;;;;;;;10.97;4.33;;;4.60;99.90;;;;;;6211643;23;20169;-62
2023/05/04 03:15:01;;;;;;;8.03;4.17;;;4.70;99.90;;;;;;6223403;22;20771;-63
2023/05/04 03:17:28;;;;;;;8.33;4.23;;;4.60;99.90;;;;;;6213392;22;20180;-62
2023/05/04 03:19:55;;;;;;;7.77;4.53;;;4.60;99.90;;;;;;6207330;22;20714;-62
2023/05/04 03:22:23;;;;;;;10.07;3.97;;;4.60;99.90;;;;;;6214243;23;20604;-62
2023/05/04 03:24:51;;;;;;;12.33;4.17;;;4.50;99.90;;;;;;6198080;22;20302;-62
2023/05/04 03:27:18;;;;;;;8.30;3.90;;;4.50;99.90;;;;;;6215148;23;20307;-63
2023/05/04 03:29:45;;;;;;;6.90;4.23;;;4.50;99.90;;;;;;6220817;22;20177;-62
2023/05/04 03:32:12;;;;;;;7.77;4.13;;;4.40;99.90;;;;;;6214415;23;20200;-62
2023/05/04 03:34:40;;;;;;;9.20;4.50;;;4.50;99.90;;;;;;6213915;23;20183;-62
2023/05/04 03:37:07;;;;;;;5.93;4.23;;;4.50;99.90;;;;;;6218660;22;20224;-62
2023/05/04 03:39:35;;;;;;;6.30;3.77;;;4.60;99.90;;;;;;6204391;23;20256;-63
2023/05/04 03:42:03;;;;;;;5.33;4.00;;;4.70;99.90;;;;;;6220991;23;20177;-63
2023/05/04 03:44:30;;;;;;;6.30;3.90;;;4.90;99.90;;;;;;6208150;22;20252;-63
2023/05/04 03:46:57;;;;;;;7.67;4.03;;;4.90;99.90;;;;;;6219952;23;20197;-62
2023/05/04 03:49:24;;;;;;;8.30;4.07;;;5.00;99.90;;;;;;6215429;22;20178;-62
2023/05/04 03:51:51;;;;;;;8.03;4.37;;;4.90;99.90;;;;;;6201839;23;20201;-63
2023/05/04 03:54:18;;;;;;;9.30;4.03;;;4.90;99.90;;;;;;6199746;22;20193;-62
2023/05/04 03:56:46;;;;;;;7.03;4.10;;;4.90;99.90;;;;;;6218869;22;20809;-62
2023/05/04 03:59:13;;;;;;;6.17;3.37;;;4.80;99.90;;;;;;6214294;23;20173;-63
2023/05/04 04:01:40;;;;;;;10.30;4.37;;;4.80;99.90;;;;;;6214272;23;20176;-63
2023/05/04 04:04:07;;;;;;;7.43;3.93;;;4.70;99.90;;;;;;6208267;22;20260;-62
2023/05/04 04:06:34;;;;;;;8.30;4.27;;;4.60;99.90;;;;;;6203217;23;20205;-62
2023/05/04 04:09:01;;;;;;;8.90;4.13;;;4.60;99.90;;;;;;6207643;22;20628;-62
2023/05/04 04:11:28;;;;;;;9.37;4.50;;;4.50;99.90;;;;;;6218923;22;20278;-63
2023/05/04 04:13:56;;;;;;;7.07;4.30;;;4.50;99.90;;;;;;6218076;23;20177;-63
2023/05/04 04:16:23;;;;;;;9.27;3.97;;;4.50;99.90;;;;;;6210785;22;20169;-63
2023/05/04 04:18:50;;;;;;;11.17;4.93;;;4.40;99.90;;;;;;6222955;22;20215;-63
2023/05/04 04:21:17;;;;;;;6.37;4.27;;;4.50;99.90;;;;;;6191543;23;20259;-62
2023/05/04 04:23:44;;;;;;;8.30;3.90;;;4.40;99.90;;;;;;6223924;22;20203;-62
2023/05/04 04:26:11;;;;;;;6.60;4.10;;;4.50;99.90;;;;;;6199091;22;20282;-63
2023/05/04 04:28:38;;;;;;;6.80;3.80;;;4.50;99.90;;;;;;6221805;23;20173;-62
2023/05/04 04:31:06;;;;;;;5.60;3.40;;;4.70;99.90;;;;;;6207535;22;20196;-63
2023/05/04 04:33:34;;;;;;;5.47;3.87;;;4.90;99.90;;;;;;6220213;23;20176;-62
2023/05/04 04:36:01;;;;;;;6.37;3.50;;;4.90;99.90;;;;;;6202155;23;20976;-62
2023/05/04 04:38:28;;;;;;;9.50;4.60;;;4.90;99.90;;;;;;6216371;23;20231;-62
2023/05/04 04:40:55;;;;;;;7.57;3.90;;;4.90;99.90;;;;;;6194330;22;20177;-62
2023/05/04 04:43:22;;;;;;;7.73;4.37;;;5.00;99.90;;;;;;6208569;22;20193;-63
2023/05/04 04:45:49;;;;;;;6.83;4.10;;;5.10;99.90;;;;;;6209028;22;20257;-62
2023/05/04 04:48:20;;;;;;;10.33;3.93;;;5.30;99.90;;;;;;6210523;22;20712;-62
2023/05/04 04:50:47;;;;;;;10.73;3.97;;;5.40;99.90;;;;;;6210506;23;20227;-62
2023/05/04 04:53:14;;;;;;;7.97;3.60;;;5.50;99.90;;;;;;6202717;22;20206;-62
2023/05/04 04:55:41;;;;;;;6.03;3.67;;;5.50;99.90;;;;;;6214565;23;20262;-63
2023/05/04 04:58:08;;;;;;;9.60;4.30;;;5.60;99.90;;;;;;6206687;22;20238;-63
2023/05/04 05:00:35;;;;;;;7.67;4.13;;;5.60;99.90;;;;;;6209830;22;20275;-62
2023/05/04 05:03:03;;;;;;;4.77;3.77;;;5.70;99.90;;;;;;6192884;22;20208;-62
2023/05/04 05:05:31;;;;;;;6.57;3.73;;;5.70;99.90;;;;;;6205115;22;20776;-63
2023/05/04 05:07:58;;;;;;;9.17;4.10;;;5.80;99.90;;;;;;6209318;22;20235;-62
2023/05/04 05:10:25;;;;;;;8.30;3.87;;;5.90;99.90;;;;;;6216179;22;20208;-63
2023/05/04 05:12:52;;;;;;;10.53;3.67;;;6.00;99.90;;;;;;6203705;23;20551;-63
2023/05/04 05:15:19;;;;;;;5.70;3.67;;;6.00;99.90;;;;;;6217081;23;20230;-63
2023/05/04 05:17:46;;;;;;;10.87;3.90;;;6.10;99.90;;;;;;6202032;22;20280;-62
2023/05/04 05:20:14;;;;;;;9.00;3.50;;;6.20;99.90;;;;;;6214666;22;20203;-62
2023/05/04 05:22:42;;;;;;;6.40;3.23;;;6.30;99.90;;;;;;6195709;22;20272;-62
2023/05/04 05:25:09;;;;;;;6.30;3.20;;;6.30;99.90;;;;;;6214020;23;20303;-62
2023/05/04 05:27:36;;;;;;;8.00;3.40;;;6.40;99.90;;;;;;6201490;22;20243;-62
2023/05/04 05:30:04;;;;;;;7.00;3.47;;;6.40;99.90;;;;;;6220611;23;20552;-62
2023/05/04 05:32:32;;;;;;;6.60;3.30;;;6.50;99.90;;;;;;6209300;22;20175;-63
2023/05/04 05:34:59;;;;;;;11.50;3.77;;;6.60;99.90;;;;;;6220866;23;20175;-62
2023/05/04 05:37:26;;;;;;;5.07;3.10;;;6.60;99.90;;;;;;6212282;22;20250;-62
2023/05/04 05:39:54;;;;;;;10.73;3.20;;;6.70;99.90;;;;;;6206158;22;20201;-63
2023/05/04 05:42:21;;;;;;;8.80;3.50;;;6.70;99.90;;;;;;6207180;23;20180;-62
2023/05/04 05:44:48;;;;;;;10.93;3.40;;;6.70;99.90;;;;;;6220518;23;20521;-61
2023/05/04 05:47:15;;;;;;;6.70;3.07;;;6.80;99.90;;;;;;6222347;23;20236;-62
2023/05/04 05:49:42;;;;;;;5.57;3.00;;;6.90;99.90;;;;;;6209439;22;20426;-62
2023/05/04 05:52:09;;;;;;;8.60;3.73;;;7.00;99.90;;;;;;6221904;23;20227;-62
2023/05/04 05:54:37;;;;;;;8.83;3.00;;;7.00;99.90;;;;;;6201022;23;21002;-62
2023/05/04 05:57:06;;;;;;;9.53;3.10;;;7.00;99.90;;;;;;6207199;23;20221;-63
2023/05/04 05:59:32;;;;;;;5.43;2.77;;;7.10;99.90;;;;;;6203260;23;20177;-63
2023/05/04 06:01:59;;;;;;;3.87;2.67;;;7.20;99.90;;;;;;6198029;23;20771;-63
2023/05/04 06:04:26;;;;;;;8.33;3.23;;;7.20;99.90;;;;;;6215679;23;20215;-62
2023/05/04 06:06:53;;;;;;;7.00;3.03;;;7.30;99.90;;;;;;6204307;23;20298;-63
2023/05/04 06:09:20;;;;;;;6.07;2.90;;;7.40;99.90;;;;;;6209290;23;20599;-62
2023/05/04 06:11:47;;;;;;;4.50;2.70;;;7.50;99.90;;;;;;6207715;22;20493;-63
2023/05/04 06:14:16;;;;;;;9.90;2.83;;;7.60;99.90;;;;;;6202623;22;20256;-63
2023/05/04 06:16:43;;;;;;;7.73;3.13;;;7.60;99.90;;;;;;6198289;23;20610;-63
2023/05/04 06:19:10;;;;;;;5.00;2.70;;;7.70;99.90;;;;;;6211716;23;20286;-63
2023/05/04 06:21:37;;;;;;;8.63;2.83;;;7.70;99.90;;;;;;6215882;22;20196;-63
2023/05/04 06:24:04;;;;;;;4.23;2.53;;;7.80;99.90;;;;;;6203707;22;20294;-63
2023/05/04 06:26:31;;;;;;;6.07;2.73;;;7.90;99.90;;;;;;6206064;23;20255;-62
2023/05/04 06:28:58;;;;;;;4.00;2.13;;;8.00;99.90;;;;;;6201427;23;20281;-62
2023/05/04 06:31:26;;;;;;;5.70;2.87;;;8.10;99.90;;;;;;6211969;23;20239;-62
2023/05/04 06:33:53;;;;;;;4.03;2.70;;;8.20;99.90;;;;;;6211627;23;20172;-62
2023/05/04 06:36:20;;;;;;;5.10;2.40;;;8.20;99.90;;;;;;6210359;23;20447;-63
2023/05/04 06:38:47;;;;;;;6.80;2.47;;;8.20;99.90;;;;;;6211657;23;20827;-63
2023/05/04 06:41:14;;;;;;;8.20;3.53;;;8.30;99.90;;;;;;6208902;23;20177;-63
2023/05/04 06:43:42;;;;;;;8.20;2.67;;;8.40;99.90;;;;;;6192305;23;20285;-63
2023/05/04 06:46:09;;;;;;;6.23;2.83;;;8.50;99.90;;;;;;6221700;23;20636;-63
2023/05/04 06:48:37;;;;;;;7.67;2.70;;;8.50;99.90;;;;;;6195472;23;20201;-62
2023/05/04 06:51:04;;;;;;;5.63;2.53;;;8.60;99.90;;;;;;6212581;23;20177;-62
2023/05/04 06:53:31;;;;;;;5.20;2.43;;;8.70;99.90;;;;;;6211242;23;20615;-63
2023/05/04 06:55:58;;;;;;;3.87;2.10;;;8.80;99.90;;;;;;6213780;23;20264;-62
2023/05/04 06:58:25;;;;;;;3.20;2.63;;;8.80;99.90;;;;;;6187502;23;20258;-63
2023/05/04 07:00:52;;;;;;;6.23;2.63;;;8.80;99.90;;;;;;6218221;22;20208;-63
2023/05/04 07:03:19;;;;;;;7.07;2.40;;;8.90;99.90;;;;;;6211344;23;20649;-62
2023/05/04 07:05:49;;;;;;;7.43;2.80;;;8.90;99.90;;;;;;6202672;23;20405;-63
2023/05/04 07:08:16;;;;;;;6.87;2.60;;;9.00;99.90;;;;;;6218298;22;20208;-63
2023/05/04 07:10:43;;;;;;;4.17;2.23;;;9.00;99.90;;;;;;6203048;23;20897;-62
2023/05/04 07:13:10;;;;;;;12.17;3.10;;;9.10;99.90;;;;;;6200297;23;20488;-62
2023/05/04 07:15:37;;;;;;;5.17;2.17;;;9.30;99.90;;;;;;6194594;22;21032;-63
2023/05/04 07:18:04;;;;;;;7.57;2.67;;;9.30;99.90;;;;;;6209836;23;20208;-62
2023/05/04 07:20:31;;;;;;;7.43;2.13;;;9.40;99.90;;;;;;6207088;22;20813;-63
2023/05/04 07:22:59;;;;;;;7.35;2.58;;;9.50;99.90;;;;;;6221062;22;20253;-62
2023/05/04 07:25:26;;;;;;;5.38;2.72;;;9.60;99.90;;;;;;6203500;22;20228;-63
2023/05/04 07:27:54;;;;;;;10.07;3.05;;;9.70;99.90;;;;;;6212614;23;20201;-62
2023/05/04 07:30:21;;;;;;;5.80;2.70;;;9.70;99.90;;;;;;6188515;22;20224;-62
2023/05/04 07:32:48;;;;;;;4.43;2.30;;;9.80;99.90;;;;;;6220809;22;20177;-63
2023/05/04 07:35:15;;;;;;;4.00;2.20;;;9.80;99.90;;;;;;6198451;22;20204;-63
2023/05/04 07:37:42;;;;;;;7.13;2.80;;;9.90;99.90;;;;;;6216540;23;20378;-63
2023/05/04 07:40:13;;;;;;;3.40;2.15;;;10.00;99.90;;;;;;6214492;23;20222;-63
2023/05/04 07:42:40;;;;;;;6.50;2.00;;;10.00;99.90;;;;;;6208817;22;20463;-63
2023/05/04 07:45:08;;;;;;;5.53;2.20;;;10.10;99.90;;;;;;6205244;22;20177;-63
2023/05/04 07:47:35;;;;;;;5.05;2.40;;;10.10;99.90;;;;;;6193931;22;20208;-63
2023/05/04 07:50:02;;;;;;;5.28;2.75;;;10.20;99.90;;;;;;6208676;22;20228;-62
2023/05/04 07:52:29;;;;;;;5.40;1.92;;;10.20;99.90;;;;;;6207068;22;20196;-63
2023/05/04 07:54:56;;;;;;;11.05;2.53;;;10.30;99.90;;;;;;6215421;22;20246;-63
2023/05/04 07:57:24;;;;;;;6.30;2.00;;;10.30;99.90;;;;;;6206844;23;20208;-62
2023/05/04 07:59:54;;;;;;;4.90;2.33;;;10.40;99.90;;;;;;6209305;22;20675;-63
2023/05/04 08:02:21;;;;;;;5.95;2.60;;;10.50;99.90;;;;;;6204671;23;20188;-63
2023/05/04 08:04:48;;;;;;;4.68;2.22;;;10.60;99.90;;;;;;6211341;23;20411;-62
2023/05/04 08:07:15;;;;;;;3.03;2.30;;;10.60;99.90;;;;;;6212228;22;20255;-63
2023/05/04 08:09:42;;;;;;;3.40;2.17;;;10.70;99.90;;;;;;6218235;23;20317;-62
2023/05/04 08:12:11;;;;;;;6.60;2.35;;;10.80;99.90;;;;;;6212614;22;20290;-62
2023/05/04 08:14:39;;;;;;;6.80;2.17;;;10.80;99.90;;;;;;6196006;23;20565;-63
2023/05/04 08:17:06;;;;;;;3.55;2.33;;;10.90;99.90;;;;;;6215124;22;20495;-63
2023/05/04 08:19:34;;;;;;;7.32;2.42;;;10.90;99.90;;;;;;6197358;22;20189;-63
2023/05/04 08:22:01;;;;;;;3.03;2.00;;;11.00;99.90;;;;;;6198997;22;20870;-62
2023/05/04 08:24:28;;;;;;;4.25;2.00;;;11.00;99.90;;;;;;6214149;23;20172;-63
2023/05/04 08:26:55;;;;;;;4.30;2.25;;;11.00;99.90;;;;;;6211441;22;20188;-63
2023/05/04 08:29:22;;;;;;;7.90;2.72;;;11.10;99.90;;;;;;6213660;22;20173;-63
2023/05/04 08:31:50;;;;;;;5.63;2.38;;;11.20;99.90;;;;;;6207209;22;20197;-63
2023/05/04 08:34:17;;;;;;;4.85;2.13;;;11.20;99.90;;;;;;6204439;22;20220;-63
2023/05/04 08:36:45;;;;;;;5.03;1.88;;;11.30;99.90;;;;;;6211364;22;20197;-63
2023/05/04 08:39:12;;;;;;;7.20;2.28;;;11.30;99.90;;;;;;6217112;23;20285;-63
2023/05/04 08:41:40;;;;;;;5.22;2.10;;;11.30;99.90;;;;;;6211463;23;20936;-62
2023/05/04 08:44:09;;;;;;;5.85;2.78;;;11.40;99.90;;;;;;6211751;23;20172;-63
2023/05/04 08:46:37;;;;;;;10.27;2.60;;;11.50;99.90;;;;;;6212614;23;20208;-63
2023/05/04 08:49:05;;;;;;;3.22;1.90;;;11.50;99.90;;;;;;6202673;22;21260;-63
2023/05/04 08:51:36;;;;;;;5.47;1.90;;;11.60;99.90;;;;;;6212149;23;20292;-63
2023/05/04 08:54:05;;;;;;;5.22;2.38;;;11.70;99.90;;;;;;6207832;22;20193;-63
2023/05/04 08:56:34;;;;;;;2.78;2.30;;;11.80;99.90;;;;;;6207547;23;20712;-63
2023/05/04 08:59:02;;;;;;;6.63;2.17;;;11.90;99.90;;;;;;6224789;22;20181;-63
2023/05/04 09:01:31;;;;;;;3.13;2.00;;;12.00;99.90;;;;;;6205550;23;20169;-63
2023/05/04 09:04:01;;;;;;;6.68;2.00;;;12.00;99.90;;;;;;6208389;22;20231;-63
2023/05/04 09:06:31;;;;;;;7.10;1.85;;;12.10;99.90;;;;;;6215982;22;20261;-63
2023/05/04 09:08:58;;;;;;;4.03;2.67;;;12.10;99.90;;;;;;6215614;23;20792;-63
2023/05/04 09:11:25;;;;;;;9.27;2.10;;;12.20;99.90;;;;;;6219079;22;20201;-63
2023/05/04 09:13:52;;;;;;;5.10;2.08;;;12.20;99.90;;;;;;6170715;23;20750;-63
2023/05/04 09:16:19;;;;;;;4.85;2.15;;;12.30;99.90;;;;;;6158233;23;20200;-63
2023/05/04 09:18:46;;;;;;;4.70;2.08;;;12.40;99.90;;;;;;6167459;23;20517;-63
2023/05/04 09:21:13;;;;;;;5.47;2.60;;;12.60;99.90;;;;;;6178181;23;20225;-63
2023/05/04 09:23:49;;;;;;;7.07;2.50;;;12.70;99.90;;;;;;6163572;23;20228;-63
2023/05/04 09:26:27;;;;;;;5.53;2.53;;;12.70;99.90;;;;;;6178350;23;20201;-63
2023/05/04 09:28:54;;;;;;;7.05;1.70;;;12.80;99.90;;;;;;6176559;23;20302;-63
2023/05/04 09:31:22;;;;;;;9.88;2.97;;;12.90;99.90;;;;;;6167818;23;20180;-63
2023/05/04 09:33:48;;;;;;;5.75;2.00;;;13.00;99.90;;;;;;6185971;23;20178;-63
2023/05/04 09:36:18;;;;;;;4.35;1.80;;;13.00;99.90;;;;;;6165314;23;20189;-63
2023/05/04 09:38:45;;;;;;;4.53;1.60;;;13.10;99.90;;;;;;6168116;23;20594;-63
2023/05/04 09:41:13;;;;;;;5.68;2.00;;;13.20;99.90;;;;;;6189277;23;20243;-63
2023/05/04 09:43:40;;;;;;;6.97;2.20;;;13.40;99.90;;;;;;6171463;23;20451;-63
2023/05/04 09:46:15;;;;;;;4.57;2.10;;;13.40;99.90;;;;;;6181307;23;20182;-63
2023/05/04 09:48:52;;;;;;;8.68;2.28;;;13.50;99.90;;;;;;6175702;23;20492;-63
2023/05/04 09:51:21;;;;;;;4.20;2.25;;;13.50;99.90;;;;;;6175098;23;20183;-63
2023/05/04 09:53:49;;;;;;;4.32;2.20;;;13.50;99.90;;;;;;6177647;23;20379;-63
2023/05/04 09:56:31;;;;;;;6.65;2.25;;;13.40;99.90;;;;;;6184434;23;20235;-63
2023/05/04 09:58:59;;;;;;;6.03;2.63;;;13.50;99.90;;;;;;6173127;23;20537;-63
2023/05/04 10:01:28;;;;;;;4.93;2.22;;;13.40;99.90;;;;;;6182765;23;20695;-63
2023/05/04 10:03:55;;;;;;;4.47;2.05;;;13.50;99.90;;;;;;6173474;23;20203;-63
2023/05/04 10:06:23;;;;;;;4.05;2.28;;;13.50;99.90;;;;;;6173164;23;20726;-63
2023/05/04 10:08:50;;;;;;;3.20;2.00;;;13.50;99.90;;;;;;6181302;23;20232;-63
2023/05/04 10:11:20;;;;;;;6.30;2.53;;;13.50;99.90;;;;;;6187595;23;20706;-63
2023/05/04 10:13:48;;;;;;;4.22;2.05;;;13.60;99.90;;;;;;6182097;23;20507;-63
2023/05/04 10:16:27;;;;;;;4.72;2.20;;;13.60;99.90;;;;;;6174646;23;20517;-63
2023/05/04 10:19:11;;;;;;;9.18;2.50;;;13.70;99.90;;;;;;6173928;23;20271;-63
2023/05/04 10:21:48;;;;;;;5.22;2.20;;;13.70;99.90;;;;;;6174126;23;20644;-63
2023/05/04 10:24:45;;;;;;;7.88;2.15;;;13.80;99.90;;;;;;6179634;23;20771;-63
2023/05/04 10:27:16;;;;;;;4.03;2.35;;;13.90;99.90;;;;;;6176476;23;20177;-63
2023/05/04 10:29:48;;;;;;;6.15;1.92;;;14.00;99.90;;;;;;6171189;23;20295;-63
2023/05/04 10:32:19;;;;;;;7.25;2.42;;;14.00;99.90;;;;;;6176702;23;20247;-63
2023/05/04 10:34:46;;;;;;;6.50;2.53;;;14.10;99.90;;;;;;6171357;23;20212;-63
2023/05/04 10:37:18;;;;;;;6.47;2.03;;;14.30;99.90;;;;;;6164038;23;20645;-63
2023/05/04 10:39:52;;;;;;;2.63;2.00;;;14.30;99.90;;;;;;6178637;23;20220;-63
2023/05/04 10:42:20;;;;;;;4.20;2.20;;;14.50;99.90;;;;;;6187228;23;20280;-63
2023/05/04 10:44:52;;;;;;;3.63;2.10;;;14.50;99.90;;;;;;6177624;23;20408;-64
2023/05/04 10:47:28;;;;;;;7.07;2.05;;;14.40;99.90;;;;;;6190930;23;20176;-63
2023/05/04 10:50:01;;;;;;;14.05;2.58;;;14.50;99.90;;;;;;6166591;23;20551;-64
2023/05/04 10:52:28;;;;;;;4.18;2.33;;;14.50;99.90;;;;;;6188837;23;20174;-63
2023/05/04 10:55:00;;;;;;;4.50;2.13;;;14.50;99.90;;;;;;6166803;23;20517;-63
2023/05/04 10:57:29;;;;;;;3.65;2.38;;;14.60;99.90;;;;;;6162387;23;20197;-63
2023/05/04 10:59:56;;;;;;;3.80;2.30;;;14.60;99.90;;;;;;6189273;23;20181;-63
2023/05/04 11:02:24;;;;;;;5.30;2.58;;;14.70;99.90;;;;;;6163831;23;20189;-63
2023/05/04 11:05:05;;;;;;;3.13;1.85;;;14.70;99.90;;;;;;6183352;23;20201;-63
2023/05/04 11:07:37;;;;;;;5.70;1.77;;;14.80;99.90;;;;;;6178269;23;21023;-63
2023/05/04 11:10:04;;;;;;;8.00;1.80;;;14.90;99.90;;;;;;6177660;23;20519;-63
2023/05/04 11:12:33;;;;;;;6.28;2.20;;;15.00;99.90;;;;;;6167074;23;20306;-63
2023/05/04 11:15:07;;;;;;;3.03;2.20;;;15.00;99.90;;;;;;6183801;23;20722;-64
2023/05/04 11:17:34;;;;;;;4.45;2.03;;;15.00;99.90;;;;;;6168735;23;20608;-64
2023/05/04 11:20:01;;;;;;;4.45;2.10;;;15.00;99.90;;;;;;6162948;23;20255;-63
2023/05/04 11:22:28;;;;;;;2.92;2.22;;;14.90;99.90;;;;;;6177528;23;20184;-64
2023/05/04 11:24:55;;;;;;;3.85;2.10;;;14.90;99.90;;;;;;6174154;23;20181;-63
2023/05/04 11:27:24;;;;;;;7.10;2.28;;;14.90;99.90;;;;;;6177775;23;20508;-63
2023/05/04 11:29:59;;;;;;;5.80;2.00;;;14.90;99.90;;;;;;6192000;23;20531;-63
2023/05/04 11:32:36;;;;;;;4.97;2.10;;;14.90;99.90;;;;;;6184649;23;20177;-64
2023/05/04 11:35:07;;;;;;;3.30;2.30;;;14.80;99.90;;;;;;6161169;23;20185;-64
2023/05/04 11:37:40;;;;;;;4.07;1.73;;;14.80;99.90;;;;;;6161959;23;20307;-63
2023/05/04 11:40:12;;;;;;;4.40;1.88;;;14.80;99.90;;;;;;6170963;23;20190;-63
2023/05/04 11:42:40;;;;;;;6.40;2.15;;;14.80;99.90;;;;;;6179289;23;20445;-63
2023/05/04 11:45:12;;;;;;;8.25;2.17;;;14.90;99.90;;;;;;6186969;23;20511;-63
2023/05/04 11:47:39;;;;;;;6.95;1.92;;;15.00;99.90;;;;;;6179291;23;20460;-63
2023/05/04 11:50:09;;;;;;;2.75;1.95;;;15.00;99.90;;;;;;6172462;23;20247;-63
2023/05/04 11:52:39;;;;;;;4.68;2.10;;;15.10;99.90;;;;;;6165855;23;20535;-63
2023/05/04 11:55:07;;;;;;;4.25;2.60;;;15.20;99.90;;;;;;6170831;23;20186;-63
2023/05/04 11:57:36;;;;;;;4.32;1.90;;;15.30;99.90;;;;;;6177982;23;20376;-63
2023/05/04 12:00:03;;;;;;;3.60;1.80;;;15.30;99.90;;;;;;6189198;23;20177;-63
2023/05/04 12:02:32;;;;;;;5.15;2.38;;;15.30;99.90;;;;;;6185196;23;20178;-63
2023/05/04 12:04:59;;;;;;;5.45;1.60;;;15.30;99.90;;;;;;6179035;23;20248;-63
2023/05/04 12:07:26;;;;;;;5.13;2.17;;;15.30;99.90;;;;;;6152473;23;20578;-63
2023/05/04 12:09:53;;;;;;;5.68;1.83;;;15.30;99.90;;;;;;6188696;23;20286;-63
2023/05/04 12:12:20;;;;;;;3.50;1.90;;;15.40;99.90;;;;;;6160048;23;20265;-63
2023/05/04 12:14:48;;;;;;;3.05;1.80;;;15.50;99.90;;;;;;6167436;23;20360;-64
2023/05/04 12:17:15;;;;;;;7.55;1.90;;;15.50;99.90;;;;;;6180914;23;20644;-63
2023/05/04 12:19:50;;;;;;;5.45;1.90;;;15.50;99.90;;;;;;6175329;23;20179;-64
2023/05/04 12:22:17;;;;;;;4.70;1.90;;;15.50;99.90;;;;;;6169794;23;20212;-63
2023/05/04 12:24:44;;;;;;;6.80;2.35;;;15.50;99.90;;;;;;6172220;23;20703;-63
2023/05/04 12:27:14;;;;;;;3.17;1.85;;;15.50;99.90;;;;;;6160999;23;20200;-63
2023/05/04 12:29:41;;;;;;;6.63;2.17;;;15.50;99.90;;;;;;6191938;23;20278;-63
2023/05/04 12:32:08;;;;;;;5.72;2.25;;;15.50;99.90;;;;;;6192490;23;20209;-63
2023/05/04 12:34:36;;;;;;;10.77;1.70;;;15.50;99.90;;;;;;6180703;23;20283;-64
2023/05/04 12:37:04;;;;;;;3.85;1.73;;;15.40;99.90;;;;;;6161051;23;20564;-63
2023/05/04 12:39:33;;;;;;;6.72;1.98;;;15.40;99.90;;;;;;6172392;23;20563;-64
2023/05/04 12:42:00;;;;;;;3.25;1.63;;;15.40;99.90;;;;;;6170170;23;20563;-63
2023/05/04 12:44:27;;;;;;;3.63;1.90;;;15.40;99.90;;;;;;6176036;23;20627;-64
2023/05/04 12:46:54;;;;;;;2.55;1.70;;;15.50;99.90;;;;;;6180627;23;20256;-63
2023/05/04 12:49:21;;;;;;;4.47;1.92;;;15.50;99.90;;;;;;6180623;23;20723;-63
2023/05/04 12:51:51;;;;;;;6.50;1.90;;;15.60;99.90;;;;;;6162087;23;20504;-63
2023/05/04 12:54:19;;;;;;;2.97;1.90;;;15.60;99.90;;;;;;6176694;22;20257;-63
2023/05/04 12:56:46;;;;;;;3.85;1.65;;;15.60;99.90;;;;;;6210052;22;20565;-63